• Join FlightAware (Why Join?)
  • Login
  • US Flag 
03:43AM EDT


 

Airport Tracker/Info


-or-


 

Live Flight TrackerFlight Track Log ✈ KAP46 ✈ 23-Jun-2013 ✈ KALB - KMSS

Flight Track Log - Related Links

Times and Time Zones

All times are in EDT time to prevent confusion due to time zone crossing. See the KAP46 flight status page for this flight to view local times or setup timezone preferences in your user account.

Time Position Orientation Groundspeed Altitude Reporting Facility
EDT Latitude Longitude Course Direction KTS MPH feet Rate Location/Type
02:39PM 42.8952 -73.8692 341° North  Level Estimated
02:40PM 42.9196 -73.8804 341° North  Level Estimated
02:41PM 42.9439 -73.8917 341° North  Level Estimated
02:42PM 42.9683 -73.9029 341° North  Level Estimated
02:43PM 42.9926 -73.9142 341° North  Level Estimated
02:43PM 43.0464 -73.9856 341° North 129 148 7,800  Level Boston Center
02:44PM 43.0170 -73.9255 341° North  Level Estimated
02:44PM 43.0839 -73.9981 346° North 124 143 8,300  Level Boston Center
02:45PM 43.0413 -73.9367 341° North  Level Estimated
02:45PM 43.1128 -74.0186 333° Northwest 123 142 9,000  Level Boston Center
02:46PM 43.0657 -73.9480 341° North  Level Estimated
02:46PM 43.1436 -74.0308 344° North 121 139 9,700  Level Boston Center
02:47PM 43.0900 -73.9593 341° North  Level Estimated
02:47PM 43.1831 -74.0517 339° North 139 160 10,100  Level Boston Center
02:48PM 43.1143 -73.9706 341° North  Level Estimated
02:48PM 43.2203 -74.0697 341° North 150 173 10,000  Level Boston Center
02:49PM 43.2722 -74.0769 354° North 161 185 10,000  Level Boston Center
02:50PM 43.3183 -74.0725 North 166 191 10,100  Climbing Boston Center
02:51PM 43.3681 -74.0881 347° North 166 191 10,000 -60 Descending Boston Center
02:52PM 43.4136 -74.1064 344° North 161 185 10,000  Level Boston Center
02:53PM 43.4592 -74.1278 341° North 166 191 10,000  Level Boston Center
02:54PM 43.5025 -74.1489 341° North 166 191 10,000  Level Boston Center
02:55PM 43.5481 -74.1675 344° North 166 191 10,000  Level Boston Center
02:56PM 43.5997 -74.1947 339° North 166 191 10,000  Level Boston Center
02:57PM 43.6453 -74.2161 341° North 166 191 10,000  Level Boston Center
02:58PM 43.6908 -74.2375 341° North 166 191 10,000  Level Boston Center
02:59PM 43.7364 -74.2561 344° North 166 191 10,000  Level Boston Center
03:00PM 43.7819 -74.2806 339° North 166 191 10,000  Level Boston Center
03:02PM 43.8356 -74.3053 342° North 166 191 10,000  Level Boston Center
03:03PM 43.8811 -74.3297 339° North 166 191 10,000  Level Boston Center
03:04PM 43.9203 -74.3539 336° Northwest 166 191 10,000  Level Boston Center
03:05PM 43.9556 -74.3725 339° North 166 191 10,000  Level Boston Center
03:06PM 44.0050 -74.3969 340° North 166 191 10,000  Level Boston Center
03:07PM 44.0506 -74.4189 341° North 166 191 10,000  Level Boston Center
03:08PM 44.0897 -74.4375 341° North 161 185 10,000  Level Boston Center
03:09PM 44.1353 -74.4506 348° North 161 185 10,000  Level Boston Center
03:10PM 44.1767 -74.4664 345° North 161 185 10,000 -120 Level Boston Center
03:11PM 44.2203 -74.4881 340° North 161 185 9,800 -420 Descending Boston Center
03:12PM 44.2636 -74.5100 340° North 161 185 9,200 -600 Descending Boston Center
03:13PM 44.3111 -74.5319 342° North 171 197 8,600 -600 Descending Boston Center
03:14PM 44.3564 -74.5625 334° Northwest 171 197 8,000 -540 Descending Boston Center
03:15PM 44.3997 -74.5903 335° Northwest 171 197 7,600 -420 Descending Boston Center
03:16PM 44.4472 -74.6036 349° North 171 197 7,200 -300 Descending Boston Center
03:17PM 44.4883 -74.6400 328° Northwest 165 190 7,000 -120 Descending Boston Center
03:18PM 44.5189 -74.6733 322° Northwest 155 178 7,000  Level Boston Center
03:19PM 44.5494 -74.7122 318° Northwest 150 173 7,000  Level Boston Center
03:20PM 44.5800 -74.7425 325° Northwest 150 173 7,000  Level Boston Center
03:21PM 44.6275 -74.7589 346° North 150 173 7,000 -180 Level Boston Center
03:22PM 44.6758 -74.7406 15° North 164 189 6,700 -480 Descending Boston Center
03:23PM 44.7119 -74.7069 33° Northeast 164 189 6,100 -660 Descending Boston Center
03:24PM 44.7650 -74.6650 29° Northeast 182 209 5,400 -600 Descending Boston Center
03:25PM 44.8136 -74.6258 30° Northeast 188 216 5,000 -240 Descending Boston Center
03:26PM 44.8558 -74.5894 31° Northeast 188 216 5,000 -60 Level Boston Center
03:27PM 44.8981 -74.5586 27° Northeast 188 216 4,900 -420 Descending Boston Center
03:28PM 44.9439 -74.5692 351° North 158 182 4,200 -720 Descending Boston Center
03:29PM 44.9764 -74.6028 324° Northwest 148 170 3,500 -600 Descending Boston Center
03:30PM 44.9714 -74.6553 262° West 122 140 3,000 -480 Descending Boston Center
03:31PM 44.9639 -74.7136 260° West 127 146 2,500 900 Descending Boston Center
03:32PM 44.9628 -74.7753 269° West 127 146 5,000 1,200 Climbing Boston Center
03:33PM 44.9617 -74.8281 268° West 127 146 5,000  Level Boston Center
03:34PM 44.9606 -74.8778 268° West 127 146 5,000  Level Boston Center
03:35PM 44.9603 -74.8983 269° West 127 146 5,000  Level Boston Center